sensor_id;sensor_type;location;lat;lon;timestamp;P1;durP1;ratioP1;P2;durP2;ratioP2
19193;SDS011;9729;52.296;13.260;2022-10-16T00:00:41;2.57;;;2.37;;
19193;SDS011;9729;52.296;13.260;2022-10-16T00:03:08;3.73;;;1.90;;
19193;SDS011;9729;52.296;13.260;2022-10-16T00:05:37;4.43;;;2.40;;
19193;SDS011;9729;52.296;13.260;2022-10-16T00:08:05;3.07;;;2.30;;
19193;SDS011;9729;52.296;13.260;2022-10-16T00:10:31;4.43;;;2.47;;
19193;SDS011;9729;52.296;13.260;2022-10-16T00:12:57;5.97;;;2.60;;
19193;SDS011;9729;52.296;13.260;2022-10-16T00:15:25;2.20;;;2.00;;
19193;SDS011;9729;52.296;13.260;2022-10-16T00:17:51;3.27;;;2.00;;
19193;SDS011;9729;52.296;13.260;2022-10-16T00:20:18;2.30;;;2.10;;
19193;SDS011;9729;52.296;13.260;2022-10-16T00:22:44;2.70;;;2.50;;
19193;SDS011;9729;52.296;13.260;2022-10-16T00:25:11;2.30;;;2.10;;
19193;SDS011;9729;52.296;13.260;2022-10-16T00:27:37;5.03;;;2.40;;
19193;SDS011;9729;52.296;13.260;2022-10-16T00:30:04;2.40;;;2.20;;
19193;SDS011;9729;52.296;13.260;2022-10-16T00:32:35;3.27;;;2.83;;
19193;SDS011;9729;52.296;13.260;2022-10-16T00:35:01;2.57;;;2.00;;
19193;SDS011;9729;52.296;13.260;2022-10-16T00:37:28;3.33;;;2.70;;
19193;SDS011;9729;52.296;13.260;2022-10-16T00:39:55;2.43;;;2.10;;
19193;SDS011;9729;52.296;13.260;2022-10-16T00:42:21;2.27;;;2.07;;
19193;SDS011;9729;52.296;13.260;2022-10-16T00:44:49;3.50;;;2.40;;
19193;SDS011;9729;52.296;13.260;2022-10-16T00:47:18;2.93;;;2.13;;
19193;SDS011;9729;52.296;13.260;2022-10-16T00:49:48;6.17;;;1.90;;
19193;SDS011;9729;52.296;13.260;2022-10-16T00:52:16;3.00;;;1.90;;
19193;SDS011;9729;52.296;13.260;2022-10-16T00:54:43;4.00;;;2.00;;
19193;SDS011;9729;52.296;13.260;2022-10-16T00:57:11;2.10;;;1.80;;
19193;SDS011;9729;52.296;13.260;2022-10-16T00:59:38;6.87;;;2.10;;
19193;SDS011;9729;52.296;13.260;2022-10-16T01:02:07;2.20;;;1.97;;
19193;SDS011;9729;52.296;13.260;2022-10-16T01:04:35;4.20;;;2.27;;
19193;SDS011;9729;52.296;13.260;2022-10-16T01:07:05;3.23;;;2.00;;
19193;SDS011;9729;52.296;13.260;2022-10-16T01:09:35;2.83;;;1.90;;
19193;SDS011;9729;52.296;13.260;2022-10-16T01:12:05;2.40;;;1.90;;
19193;SDS011;9729;52.296;13.260;2022-10-16T01:14:37;3.80;;;1.57;;
19193;SDS011;9729;52.296;13.260;2022-10-16T01:17:08;3.33;;;1.77;;
19193;SDS011;9729;52.296;13.260;2022-10-16T01:19:43;2.17;;;1.90;;
19193;SDS011;9729;52.296;13.260;2022-10-16T01:22:17;5.33;;;1.93;;
19193;SDS011;9729;52.296;13.260;2022-10-16T01:24:46;2.30;;;2.07;;
19193;SDS011;9729;52.296;13.260;2022-10-16T01:27:16;2.47;;;1.90;;
19193;SDS011;9729;52.296;13.260;2022-10-16T01:29:48;2.10;;;1.90;;
19193;SDS011;9729;52.296;13.260;2022-10-16T01:32:16;2.50;;;2.07;;
19193;SDS011;9729;52.296;13.260;2022-10-16T01:34:47;2.43;;;2.10;;
19193;SDS011;9729;52.296;13.260;2022-10-16T01:37:16;2.00;;;1.90;;
19193;SDS011;9729;52.296;13.260;2022-10-16T01:43:10;2.93;;;2.30;;
19193;SDS011;9729;52.296;13.260;2022-10-16T01:45:38;5.23;;;2.20;;
19193;SDS011;9729;52.296;13.260;2022-10-16T01:48:06;15.33;;;2.43;;
19193;SDS011;9729;52.296;13.260;2022-10-16T01:50:35;3.10;;;1.93;;
19193;SDS011;9729;52.296;13.260;2022-10-16T01:53:04;10.63;;;2.57;;
19193;SDS011;9729;52.296;13.260;2022-10-16T01:55:32;5.57;;;2.27;;
19193;SDS011;9729;52.296;13.260;2022-10-16T01:58:00;2.33;;;1.90;;
19193;SDS011;9729;52.296;13.260;2022-10-16T02:00:28;2.70;;;2.13;;
19193;SDS011;9729;52.296;13.260;2022-10-16T02:02:55;2.23;;;2.03;;
19193;SDS011;9729;52.296;13.260;2022-10-16T02:05:25;1.97;;;1.87;;
19193;SDS011;9729;52.296;13.260;2022-10-16T02:07:53;1.90;;;1.80;;
19193;SDS011;9729;52.296;13.260;2022-10-16T02:10:19;2.00;;;1.80;;
19193;SDS011;9729;52.296;13.260;2022-10-16T02:12:48;3.30;;;1.80;;
19193;SDS011;9729;52.296;13.260;2022-10-16T02:15:16;4.07;;;1.77;;
19193;SDS011;9729;52.296;13.260;2022-10-16T02:17:44;4.33;;;2.03;;
19193;SDS011;9729;52.296;13.260;2022-10-16T02:20:11;3.07;;;1.83;;
19193;SDS011;9729;52.296;13.260;2022-10-16T02:22:38;3.43;;;1.93;;
19193;SDS011;9729;52.296;13.260;2022-10-16T02:25:08;2.63;;;1.83;;
19193;SDS011;9729;52.296;13.260;2022-10-16T02:27:38;4.27;;;1.77;;
19193;SDS011;9729;52.296;13.260;2022-10-16T02:30:08;4.30;;;1.87;;
19193;SDS011;9729;52.296;13.260;2022-10-16T02:32:39;2.57;;;2.10;;
19193;SDS011;9729;52.296;13.260;2022-10-16T02:35:09;5.30;;;1.67;;
19193;SDS011;9729;52.296;13.260;2022-10-16T02:37:37;5.23;;;1.90;;
19193;SDS011;9729;52.296;13.260;2022-10-16T02:40:05;1.97;;;1.80;;
19193;SDS011;9729;52.296;13.260;2022-10-16T02:42:33;5.30;;;1.70;;
19193;SDS011;9729;52.296;13.260;2022-10-16T02:45:00;3.53;;;1.60;;
19193;SDS011;9729;52.296;13.260;2022-10-16T02:47:27;4.97;;;1.80;;
19193;SDS011;9729;52.296;13.260;2022-10-16T02:49:53;3.97;;;1.97;;
19193;SDS011;9729;52.296;13.260;2022-10-16T02:52:21;2.30;;;1.80;;
19193;SDS011;9729;52.296;13.260;2022-10-16T02:54:47;2.50;;;1.83;;
19193;SDS011;9729;52.296;13.260;2022-10-16T02:57:14;1.67;;;1.57;;
19193;SDS011;9729;52.296;13.260;2022-10-16T02:59:41;3.67;;;2.30;;
19193;SDS011;9729;52.296;13.260;2022-10-16T03:02:08;4.50;;;1.90;;
19193;SDS011;9729;52.296;13.260;2022-10-16T03:04:34;4.53;;;1.53;;
19193;SDS011;9729;52.296;13.260;2022-10-16T03:07:01;3.70;;;1.90;;
19193;SDS011;9729;52.296;13.260;2022-10-16T03:09:29;1.77;;;1.67;;
19193;SDS011;9729;52.296;13.260;2022-10-16T03:11:55;2.53;;;2.00;;
19193;SDS011;9729;52.296;13.260;2022-10-16T03:14:21;4.03;;;1.77;;
19193;SDS011;9729;52.296;13.260;2022-10-16T03:16:48;2.00;;;1.80;;
19193;SDS011;9729;52.296;13.260;2022-10-16T03:19:15;2.57;;;1.90;;
19193;SDS011;9729;52.296;13.260;2022-10-16T03:21:42;3.37;;;2.10;;
19193;SDS011;9729;52.296;13.260;2022-10-16T03:24:08;3.90;;;2.27;;
19193;SDS011;9729;52.296;13.260;2022-10-16T03:26:36;4.87;;;2.37;;
19193;SDS011;9729;52.296;13.260;2022-10-16T03:29:03;2.60;;;2.23;;
19193;SDS011;9729;52.296;13.260;2022-10-16T03:31:30;3.80;;;2.80;;
19193;SDS011;9729;52.296;13.260;2022-10-16T03:33:56;3.60;;;2.80;;
19193;SDS011;9729;52.296;13.260;2022-10-16T03:36:24;2.97;;;2.70;;
19193;SDS011;9729;52.296;13.260;2022-10-16T03:38:50;3.17;;;2.43;;
19193;SDS011;9729;52.296;13.260;2022-10-16T03:41:16;3.47;;;2.60;;
19193;SDS011;9729;52.296;13.260;2022-10-16T03:43:44;3.90;;;2.50;;
19193;SDS011;9729;52.296;13.260;2022-10-16T03:46:10;4.30;;;2.60;;
19193;SDS011;9729;52.296;13.260;2022-10-16T03:48:37;4.03;;;2.87;;
19193;SDS011;9729;52.296;13.260;2022-10-16T03:51:05;3.00;;;2.70;;
19193;SDS011;9729;52.296;13.260;2022-10-16T03:53:32;7.13;;;2.60;;
19193;SDS011;9729;52.296;13.260;2022-10-16T03:55:58;3.27;;;2.97;;
19193;SDS011;9729;52.296;13.260;2022-10-16T03:58:24;3.13;;;2.80;;
19193;SDS011;9729;52.296;13.260;2022-10-16T04:00:53;5.40;;;3.43;;
19193;SDS011;9729;52.296;13.260;2022-10-16T04:03:19;4.20;;;3.00;;
19193;SDS011;9729;52.296;13.260;2022-10-16T04:05:46;2.97;;;2.63;;
19193;SDS011;9729;52.296;13.260;2022-10-16T04:08:12;5.87;;;2.57;;
19193;SDS011;9729;52.296;13.260;2022-10-16T04:10:39;5.43;;;2.60;;
19193;SDS011;9729;52.296;13.260;2022-10-16T04:13:05;3.00;;;2.43;;
19193;SDS011;9729;52.296;13.260;2022-10-16T04:15:31;4.83;;;2.50;;
19193;SDS011;9729;52.296;13.260;2022-10-16T04:17:59;2.67;;;2.40;;
19193;SDS011;9729;52.296;13.260;2022-10-16T04:20:26;4.90;;;2.43;;
19193;SDS011;9729;52.296;13.260;2022-10-16T04:22:53;6.40;;;2.70;;
19193;SDS011;9729;52.296;13.260;2022-10-16T04:25:20;3.33;;;2.07;;
19193;SDS011;9729;52.296;13.260;2022-10-16T04:27:46;3.20;;;2.80;;
19193;SDS011;9729;52.296;13.260;2022-10-16T04:30:13;5.37;;;2.87;;
19193;SDS011;9729;52.296;13.260;2022-10-16T04:32:39;4.70;;;2.50;;
19193;SDS011;9729;52.296;13.260;2022-10-16T04:35:08;2.93;;;2.43;;
19193;SDS011;9729;52.296;13.260;2022-10-16T04:37:34;3.83;;;2.17;;
19193;SDS011;9729;52.296;13.260;2022-10-16T04:40:01;6.80;;;2.53;;
19193;SDS011;9729;52.296;13.260;2022-10-16T04:42:27;3.40;;;3.10;;
19193;SDS011;9729;52.296;13.260;2022-10-16T04:44:54;3.73;;;2.13;;
19193;SDS011;9729;52.296;13.260;2022-10-16T04:47:20;5.07;;;2.40;;
19193;SDS011;9729;52.296;13.260;2022-10-16T04:49:46;2.37;;;2.17;;
19193;SDS011;9729;52.296;13.260;2022-10-16T04:52:14;3.30;;;2.47;;
19193;SDS011;9729;52.296;13.260;2022-10-16T04:54:41;3.30;;;2.40;;
19193;SDS011;9729;52.296;13.260;2022-10-16T04:57:10;3.27;;;2.40;;
19193;SDS011;9729;52.296;13.260;2022-10-16T04:59:36;2.90;;;2.43;;
19193;SDS011;9729;52.296;13.260;2022-10-16T05:02:03;3.00;;;2.70;;
19193;SDS011;9729;52.296;13.260;2022-10-16T05:04:29;6.17;;;2.27;;
19193;SDS011;9729;52.296;13.260;2022-10-16T05:06:55;4.00;;;2.37;;
19193;SDS011;9729;52.296;13.260;2022-10-16T05:09:23;4.93;;;2.60;;
19193;SDS011;9729;52.296;13.260;2022-10-16T05:11:49;3.53;;;2.93;;
19193;SDS011;9729;52.296;13.260;2022-10-16T05:14:16;2.57;;;2.37;;
19193;SDS011;9729;52.296;13.260;2022-10-16T05:16:42;5.53;;;2.63;;
19193;SDS011;9729;52.296;13.260;2022-10-16T05:19:09;5.53;;;2.53;;
19193;SDS011;9729;52.296;13.260;2022-10-16T05:21:35;5.37;;;2.93;;
19193;SDS011;9729;52.296;13.260;2022-10-16T05:24:02;3.87;;;2.30;;
19193;SDS011;9729;52.296;13.260;2022-10-16T05:26:31;2.87;;;2.50;;
19193;SDS011;9729;52.296;13.260;2022-10-16T05:28:57;2.87;;;2.60;;
19193;SDS011;9729;52.296;13.260;2022-10-16T05:31:23;4.87;;;2.50;;
19193;SDS011;9729;52.296;13.260;2022-10-16T05:33:50;4.33;;;2.73;;
19193;SDS011;9729;52.296;13.260;2022-10-16T05:36:16;3.23;;;2.47;;
19193;SDS011;9729;52.296;13.260;2022-10-16T05:38:43;8.13;;;2.70;;
19193;SDS011;9729;52.296;13.260;2022-10-16T05:41:09;4.03;;;2.90;;
19193;SDS011;9729;52.296;13.260;2022-10-16T05:43:37;9.37;;;2.80;;
19193;SDS011;9729;52.296;13.260;2022-10-16T05:46:04;3.87;;;2.47;;
19193;SDS011;9729;52.296;13.260;2022-10-16T05:48:31;5.73;;;3.50;;
19193;SDS011;9729;52.296;13.260;2022-10-16T05:50:59;6.73;;;3.33;;
19193;SDS011;9729;52.296;13.260;2022-10-16T05:53:26;4.17;;;2.80;;
19193;SDS011;9729;52.296;13.260;2022-10-16T05:55:53;3.47;;;3.00;;
19193;SDS011;9729;52.296;13.260;2022-10-16T05:58:20;3.20;;;2.90;;
19193;SDS011;9729;52.296;13.260;2022-10-16T06:00:53;8.77;;;3.53;;
19193;SDS011;9729;52.296;13.260;2022-10-16T06:03:20;4.43;;;2.60;;
19193;SDS011;9729;52.296;13.260;2022-10-16T06:05:47;4.20;;;2.97;;
19193;SDS011;9729;52.296;13.260;2022-10-16T06:08:13;2.90;;;2.60;;
19193;SDS011;9729;52.296;13.260;2022-10-16T06:10:40;3.53;;;2.53;;
19193;SDS011;9729;52.296;13.260;2022-10-16T06:13:06;4.07;;;2.80;;
19193;SDS011;9729;52.296;13.260;2022-10-16T06:15:32;3.00;;;2.70;;
19193;SDS011;9729;52.296;13.260;2022-10-16T06:18:00;7.53;;;2.60;;
19193;SDS011;9729;52.296;13.260;2022-10-16T06:20:26;2.90;;;2.60;;
19193;SDS011;9729;52.296;13.260;2022-10-16T06:22:53;3.47;;;2.83;;
19193;SDS011;9729;52.296;13.260;2022-10-16T06:25:19;4.77;;;2.40;;
19193;SDS011;9729;52.296;13.260;2022-10-16T06:27:46;3.37;;;2.67;;
19193;SDS011;9729;52.296;13.260;2022-10-16T06:30:12;3.90;;;2.70;;
19193;SDS011;9729;52.296;13.260;2022-10-16T06:32:39;2.67;;;2.47;;
19193;SDS011;9729;52.296;13.260;2022-10-16T06:35:07;3.73;;;2.30;;
19193;SDS011;9729;52.296;13.260;2022-10-16T06:37:34;4.53;;;2.50;;
19193;SDS011;9729;52.296;13.260;2022-10-16T06:40:00;7.43;;;3.63;;
19193;SDS011;9729;52.296;13.260;2022-10-16T06:42:29;3.80;;;3.40;;
19193;SDS011;9729;52.296;13.260;2022-10-16T06:44:55;3.40;;;2.53;;
19193;SDS011;9729;52.296;13.260;2022-10-16T06:47:22;3.13;;;2.30;;
19193;SDS011;9729;52.296;13.260;2022-10-16T06:49:48;3.23;;;2.10;;
19193;SDS011;9729;52.296;13.260;2022-10-16T06:52:16;3.10;;;2.07;;
19193;SDS011;9729;52.296;13.260;2022-10-16T06:54:43;5.27;;;2.10;;
19193;SDS011;9729;52.296;13.260;2022-10-16T06:57:09;6.10;;;1.73;;
19193;SDS011;9729;52.296;13.260;2022-10-16T06:59:36;2.27;;;1.63;;
19193;SDS011;9729;52.296;13.260;2022-10-16T07:02:02;4.07;;;2.13;;
19193;SDS011;9729;52.296;13.260;2022-10-16T07:04:28;2.27;;;2.07;;
19193;SDS011;9729;52.296;13.260;2022-10-16T07:06:55;2.57;;;2.17;;
19193;SDS011;9729;52.296;13.260;2022-10-16T07:09:22;6.27;;;2.03;;
19193;SDS011;9729;52.296;13.260;2022-10-16T07:11:49;2.40;;;2.00;;
19193;SDS011;9729;52.296;13.260;2022-10-16T07:14:16;5.70;;;1.87;;
19193;SDS011;9729;52.296;13.260;2022-10-16T07:16:43;1.57;;;1.47;;
19193;SDS011;9729;52.296;13.260;2022-10-16T07:19:09;1.90;;;1.73;;
19193;SDS011;9729;52.296;13.260;2022-10-16T07:21:37;3.20;;;1.60;;
19193;SDS011;9729;52.296;13.260;2022-10-16T07:24:04;4.03;;;1.60;;
19193;SDS011;9729;52.296;13.260;2022-10-16T07:26:35;4.53;;;1.47;;
19193;SDS011;9729;52.296;13.260;2022-10-16T07:29:04;4.83;;;1.50;;
19193;SDS011;9729;52.296;13.260;2022-10-16T07:31:31;1.50;;;1.40;;
19193;SDS011;9729;52.296;13.260;2022-10-16T07:33:57;4.07;;;1.33;;
19193;SDS011;9729;52.296;13.260;2022-10-16T07:36:24;2.67;;;0.90;;
19193;SDS011;9729;52.296;13.260;2022-10-16T07:38:51;1.00;;;0.90;;
19193;SDS011;9729;52.296;13.260;2022-10-16T07:41:18;5.63;;;1.37;;
19193;SDS011;9729;52.296;13.260;2022-10-16T07:43:47;1.70;;;0.80;;
19193;SDS011;9729;52.296;13.260;2022-10-16T07:46:14;1.30;;;0.93;;
19193;SDS011;9729;52.296;13.260;2022-10-16T07:48:41;2.37;;;1.27;;
19193;SDS011;9729;52.296;13.260;2022-10-16T07:51:11;1.60;;;1.10;;
19193;SDS011;9729;52.296;13.260;2022-10-16T07:53:37;0.90;;;0.90;;
19193;SDS011;9729;52.296;13.260;2022-10-16T07:56:05;4.10;;;1.10;;
19193;SDS011;9729;52.296;13.260;2022-10-16T07:58:32;1.47;;;1.37;;
19193;SDS011;9729;52.296;13.260;2022-10-16T08:01:02;3.57;;;1.00;;
19193;SDS011;9729;52.296;13.260;2022-10-16T08:03:29;4.93;;;1.00;;
19193;SDS011;9729;52.296;13.260;2022-10-16T08:05:56;5.90;;;1.20;;
19193;SDS011;9729;52.296;13.260;2022-10-16T08:08:22;3.27;;;1.00;;
19193;SDS011;9729;52.296;13.260;2022-10-16T08:10:49;2.80;;;1.40;;
19193;SDS011;9729;52.296;13.260;2022-10-16T08:13:15;1.00;;;0.97;;
19193;SDS011;9729;52.296;13.260;2022-10-16T08:15:42;2.27;;;0.90;;
19193;SDS011;9729;52.296;13.260;2022-10-16T08:18:10;4.93;;;1.30;;
19193;SDS011;9729;52.296;13.260;2022-10-16T08:20:37;6.00;;;1.27;;
19193;SDS011;9729;52.296;13.260;2022-10-16T08:23:04;2.47;;;1.20;;
19193;SDS011;9729;52.296;13.260;2022-10-16T08:25:33;5.33;;;0.90;;
19193;SDS011;9729;52.296;13.260;2022-10-16T08:28:00;1.07;;;0.70;;
19193;SDS011;9729;52.296;13.260;2022-10-16T08:30:26;1.20;;;0.83;;
19193;SDS011;9729;52.296;13.260;2022-10-16T08:32:53;4.83;;;0.77;;
19193;SDS011;9729;52.296;13.260;2022-10-16T08:35:21;0.90;;;0.80;;
19193;SDS011;9729;52.296;13.260;2022-10-16T08:37:47;3.70;;;1.00;;
19193;SDS011;9729;52.296;13.260;2022-10-16T08:40:16;0.77;;;0.73;;
19193;SDS011;9729;52.296;13.260;2022-10-16T08:45:37;3.73;;;0.87;;
19193;SDS011;9729;52.296;13.260;2022-10-16T08:48:14;0.70;;;0.70;;
19193;SDS011;9729;52.296;13.260;2022-10-16T08:50:45;2.73;;;1.03;;
19193;SDS011;9729;52.296;13.260;2022-10-16T08:53:15;0.87;;;0.80;;
19193;SDS011;9729;52.296;13.260;2022-10-16T08:55:42;1.13;;;0.90;;
19193;SDS011;9729;52.296;13.260;2022-10-16T08:58:11;5.40;;;1.20;;
19193;SDS011;9729;52.296;13.260;2022-10-16T09:00:39;2.27;;;0.83;;
19193;SDS011;9729;52.296;13.260;2022-10-16T09:03:07;2.63;;;0.97;;
19193;SDS011;9729;52.296;13.260;2022-10-16T09:08:35;1.03;;;0.93;;
19193;SDS011;9729;52.296;13.260;2022-10-16T09:11:06;2.50;;;0.80;;
19193;SDS011;9729;52.296;13.260;2022-10-16T09:13:40;1.70;;;0.80;;
19193;SDS011;9729;52.296;13.260;2022-10-16T09:16:14;1.33;;;0.83;;
19193;SDS011;9729;52.296;13.260;2022-10-16T09:18:47;1.10;;;1.00;;
19193;SDS011;9729;52.296;13.260;2022-10-16T09:21:18;1.80;;;0.97;;
19193;SDS011;9729;52.296;13.260;2022-10-16T09:23:46;5.27;;;0.90;;
19193;SDS011;9729;52.296;13.260;2022-10-16T09:26:13;2.13;;;0.80;;
19193;SDS011;9729;52.296;13.260;2022-10-16T09:28:41;4.13;;;1.00;;
19193;SDS011;9729;52.296;13.260;2022-10-16T09:31:11;1.00;;;0.90;;
19193;SDS011;9729;52.296;13.260;2022-10-16T09:33:41;3.57;;;1.27;;
19193;SDS011;9729;52.296;13.260;2022-10-16T09:36:08;1.30;;;0.90;;
19193;SDS011;9729;52.296;13.260;2022-10-16T09:38:37;1.93;;;0.97;;
19193;SDS011;9729;52.296;13.260;2022-10-16T09:41:12;0.87;;;0.77;;
19193;SDS011;9729;52.296;13.260;2022-10-16T09:43:41;1.63;;;0.97;;
19193;SDS011;9729;52.296;13.260;2022-10-16T09:46:21;2.07;;;0.70;;
19193;SDS011;9729;52.296;13.260;2022-10-16T09:48:50;1.37;;;1.00;;
19193;SDS011;9729;52.296;13.260;2022-10-16T09:51:19;1.20;;;0.93;;
19193;SDS011;9729;52.296;13.260;2022-10-16T09:53:53;4.73;;;0.80;;
19193;SDS011;9729;52.296;13.260;2022-10-16T09:56:21;8.03;;;1.20;;
19193;SDS011;9729;52.296;13.260;2022-10-16T09:58:49;4.63;;;1.00;;
19193;SDS011;9729;52.296;13.260;2022-10-16T10:01:17;1.70;;;1.00;;
19193;SDS011;9729;52.296;13.260;2022-10-16T10:03:43;1.00;;;0.90;;
19193;SDS011;9729;52.296;13.260;2022-10-16T10:06:17;1.33;;;0.90;;
19193;SDS011;9729;52.296;13.260;2022-10-16T10:08:59;1.27;;;0.97;;
19193;SDS011;9729;52.296;13.260;2022-10-16T10:11:39;1.83;;;0.87;;
19193;SDS011;9729;52.296;13.260;2022-10-16T10:14:09;0.67;;;0.60;;
19193;SDS011;9729;52.296;13.260;2022-10-16T10:16:47;0.93;;;0.70;;
19193;SDS011;9729;52.296;13.260;2022-10-16T10:19:14;1.13;;;1.03;;
19193;SDS011;9729;52.296;13.260;2022-10-16T10:21:41;3.50;;;0.90;;
19193;SDS011;9729;52.296;13.260;2022-10-16T10:24:11;0.70;;;0.70;;
19193;SDS011;9729;52.296;13.260;2022-10-16T10:26:38;5.33;;;0.70;;
19193;SDS011;9729;52.296;13.260;2022-10-16T10:29:11;2.13;;;0.87;;
19193;SDS011;9729;52.296;13.260;2022-10-16T10:31:42;1.47;;;0.57;;
19193;SDS011;9729;52.296;13.260;2022-10-16T10:34:17;3.67;;;0.67;;
19193;SDS011;9729;52.296;13.260;2022-10-16T10:36:52;5.23;;;0.77;;
19193;SDS011;9729;52.296;13.260;2022-10-16T10:39:25;2.77;;;0.70;;
19193;SDS011;9729;52.296;13.260;2022-10-16T10:42:04;1.73;;;0.77;;
19193;SDS011;9729;52.296;13.260;2022-10-16T10:44:53;1.90;;;0.70;;
19193;SDS011;9729;52.296;13.260;2022-10-16T10:47:28;1.87;;;0.53;;
19193;SDS011;9729;52.296;13.260;2022-10-16T10:50:05;1.10;;;0.47;;
19193;SDS011;9729;52.296;13.260;2022-10-16T10:52:39;5.57;;;0.73;;
19193;SDS011;9729;52.296;13.260;2022-10-16T10:55:12;1.03;;;0.60;;
19193;SDS011;9729;52.296;13.260;2022-10-16T10:57:48;1.03;;;0.70;;
19193;SDS011;9729;52.296;13.260;2022-10-16T11:00:23;1.47;;;0.77;;
19193;SDS011;9729;52.296;13.260;2022-10-16T11:02:55;1.03;;;0.60;;
19193;SDS011;9729;52.296;13.260;2022-10-16T11:05:38;1.27;;;0.70;;
19193;SDS011;9729;52.296;13.260;2022-10-16T11:08:08;4.00;;;1.30;;
19193;SDS011;9729;52.296;13.260;2022-10-16T11:10:40;0.80;;;0.77;;
19193;SDS011;9729;52.296;13.260;2022-10-16T11:13:11;0.80;;;0.60;;
19193;SDS011;9729;52.296;13.260;2022-10-16T11:15:43;0.80;;;0.80;;
19193;SDS011;9729;52.296;13.260;2022-10-16T11:18:12;0.83;;;0.50;;
19193;SDS011;9729;52.296;13.260;2022-10-16T11:20:42;1.83;;;0.50;;
19193;SDS011;9729;52.296;13.260;2022-10-16T11:23:14;0.97;;;0.60;;
19193;SDS011;9729;52.296;13.260;2022-10-16T11:25:44;0.60;;;0.40;;
19193;SDS011;9729;52.296;13.260;2022-10-16T11:28:13;0.90;;;0.60;;
19193;SDS011;9729;52.296;13.260;2022-10-16T11:30:41;1.20;;;0.80;;
19193;SDS011;9729;52.296;13.260;2022-10-16T11:33:17;3.50;;;0.83;;
19193;SDS011;9729;52.296;13.260;2022-10-16T11:35:51;1.37;;;0.60;;
19193;SDS011;9729;52.296;13.260;2022-10-16T11:38:21;1.03;;;0.50;;
19193;SDS011;9729;52.296;13.260;2022-10-16T11:40:53;1.27;;;0.70;;
19193;SDS011;9729;52.296;13.260;2022-10-16T11:43:24;1.37;;;0.40;;
19193;SDS011;9729;52.296;13.260;2022-10-16T11:45:52;1.77;;;0.60;;
19193;SDS011;9729;52.296;13.260;2022-10-16T11:48:23;1.10;;;0.50;;
19193;SDS011;9729;52.296;13.260;2022-10-16T11:50:53;2.70;;;0.60;;
19193;SDS011;9729;52.296;13.260;2022-10-16T11:53:22;0.90;;;0.60;;
19193;SDS011;9729;52.296;13.260;2022-10-16T11:55:54;1.27;;;0.70;;
19193;SDS011;9729;52.296;13.260;2022-10-16T11:58:22;0.60;;;0.57;;
19193;SDS011;9729;52.296;13.260;2022-10-16T12:00:53;0.43;;;0.43;;
19193;SDS011;9729;52.296;13.260;2022-10-16T12:03:25;2.67;;;1.03;;
19193;SDS011;9729;52.296;13.260;2022-10-16T12:06:12;1.00;;;0.40;;
19193;SDS011;9729;52.296;13.260;2022-10-16T12:08:51;0.93;;;0.60;;
19193;SDS011;9729;52.296;13.260;2022-10-16T12:11:22;1.60;;;0.57;;
19193;SDS011;9729;52.296;13.260;2022-10-16T12:13:50;3.97;;;0.50;;
19193;SDS011;9729;52.296;13.260;2022-10-16T12:16:20;1.40;;;0.40;;
19193;SDS011;9729;52.296;13.260;2022-10-16T12:18:47;2.13;;;0.60;;
19193;SDS011;9729;52.296;13.260;2022-10-16T12:21:15;0.60;;;0.60;;
19193;SDS011;9729;52.296;13.260;2022-10-16T12:23:47;0.40;;;0.40;;
19193;SDS011;9729;52.296;13.260;2022-10-16T12:26:14;0.33;;;0.30;;
19193;SDS011;9729;52.296;13.260;2022-10-16T12:28:51;1.20;;;0.43;;
19193;SDS011;9729;52.296;13.260;2022-10-16T12:31:17;0.57;;;0.40;;
19193;SDS011;9729;52.296;13.260;2022-10-16T12:33:51;0.93;;;0.47;;
19193;SDS011;9729;52.296;13.260;2022-10-16T12:36:26;2.43;;;0.43;;
19193;SDS011;9729;52.296;13.260;2022-10-16T12:38:53;2.83;;;0.60;;
19193;SDS011;9729;52.296;13.260;2022-10-16T12:41:26;2.73;;;0.47;;
19193;SDS011;9729;52.296;13.260;2022-10-16T12:43:53;1.10;;;0.53;;
19193;SDS011;9729;52.296;13.260;2022-10-16T12:46:26;1.73;;;0.60;;
19193;SDS011;9729;52.296;13.260;2022-10-16T12:49:05;1.70;;;0.50;;
19193;SDS011;9729;52.296;13.260;2022-10-16T12:51:34;0.47;;;0.33;;
19193;SDS011;9729;52.296;13.260;2022-10-16T12:54:02;1.03;;;0.40;;
19193;SDS011;9729;52.296;13.260;2022-10-16T12:56:35;1.40;;;0.60;;
19193;SDS011;9729;52.296;13.260;2022-10-16T12:59:09;3.17;;;0.63;;
19193;SDS011;9729;52.296;13.260;2022-10-16T13:01:48;4.17;;;0.60;;
19193;SDS011;9729;52.296;13.260;2022-10-16T13:04:38;1.90;;;0.70;;
19193;SDS011;9729;52.296;13.260;2022-10-16T13:07:19;3.83;;;0.50;;
19193;SDS011;9729;52.296;13.260;2022-10-16T13:09:58;0.97;;;0.40;;
19193;SDS011;9729;52.296;13.260;2022-10-16T13:12:37;1.00;;;0.77;;
19193;SDS011;9729;52.296;13.260;2022-10-16T13:15:26;1.53;;;0.60;;
19193;SDS011;9729;52.296;13.260;2022-10-16T13:18:02;3.23;;;0.50;;
19193;SDS011;9729;52.296;13.260;2022-10-16T13:20:33;1.67;;;0.80;;
19193;SDS011;9729;52.296;13.260;2022-10-16T13:23:13;2.63;;;0.40;;
19193;SDS011;9729;52.296;13.260;2022-10-16T13:25:45;0.40;;;0.40;;
19193;SDS011;9729;52.296;13.260;2022-10-16T13:28:21;0.63;;;0.43;;
19193;SDS011;9729;52.296;13.260;2022-10-16T13:30:51;0.40;;;0.40;;
19193;SDS011;9729;52.296;13.260;2022-10-16T13:33:19;0.57;;;0.50;;
19193;SDS011;9729;52.296;13.260;2022-10-16T13:35:48;0.80;;;0.30;;
19193;SDS011;9729;52.296;13.260;2022-10-16T13:38:16;2.67;;;0.60;;
19193;SDS011;9729;52.296;13.260;2022-10-16T13:40:50;2.63;;;0.40;;
19193;SDS011;9729;52.296;13.260;2022-10-16T13:43:18;1.73;;;0.50;;
19193;SDS011;9729;52.296;13.260;2022-10-16T13:45:58;1.13;;;0.60;;
19193;SDS011;9729;52.296;13.260;2022-10-16T13:48:26;2.57;;;0.40;;
19193;SDS011;9729;52.296;13.260;2022-10-16T13:51:04;1.10;;;0.63;;
19193;SDS011;9729;52.296;13.260;2022-10-16T13:53:32;0.57;;;0.57;;
19193;SDS011;9729;52.296;13.260;2022-10-16T13:56:01;2.43;;;0.87;;
19193;SDS011;9729;52.296;13.260;2022-10-16T13:58:30;5.07;;;1.73;;
19193;SDS011;9729;52.296;13.260;2022-10-16T14:00:57;0.30;;;0.30;;
19193;SDS011;9729;52.296;13.260;2022-10-16T14:03:25;1.50;;;0.50;;
19193;SDS011;9729;52.296;13.260;2022-10-16T14:05:53;1.60;;;0.40;;
19193;SDS011;9729;52.296;13.260;2022-10-16T14:08:21;1.87;;;0.50;;
19193;SDS011;9729;52.296;13.260;2022-10-16T14:10:49;0.60;;;0.40;;
19193;SDS011;9729;52.296;13.260;2022-10-16T14:13:17;2.57;;;0.60;;
19193;SDS011;9729;52.296;13.260;2022-10-16T14:15:47;3.00;;;0.50;;
19193;SDS011;9729;52.296;13.260;2022-10-16T14:18:17;1.20;;;0.60;;
19193;SDS011;9729;52.296;13.260;2022-10-16T14:20:45;0.60;;;0.60;;
19193;SDS011;9729;52.296;13.260;2022-10-16T14:23:19;0.53;;;0.53;;
19193;SDS011;9729;52.296;13.260;2022-10-16T14:25:47;2.67;;;0.73;;
19193;SDS011;9729;52.296;13.260;2022-10-16T14:28:15;0.50;;;0.50;;
19193;SDS011;9729;52.296;13.260;2022-10-16T14:30:50;3.10;;;0.77;;
19193;SDS011;9729;52.296;13.260;2022-10-16T14:33:20;0.67;;;0.67;;
19193;SDS011;9729;52.296;13.260;2022-10-16T14:35:56;0.67;;;0.57;;
19193;SDS011;9729;52.296;13.260;2022-10-16T14:38:26;6.70;;;0.60;;
19193;SDS011;9729;52.296;13.260;2022-10-16T14:40:52;1.07;;;0.70;;
19193;SDS011;9729;52.296;13.260;2022-10-16T14:43:20;1.07;;;0.73;;
19193;SDS011;9729;52.296;13.260;2022-10-16T14:45:51;2.57;;;0.80;;
19193;SDS011;9729;52.296;13.260;2022-10-16T14:48:18;0.90;;;0.63;;
19193;SDS011;9729;52.296;13.260;2022-10-16T14:50:45;0.70;;;0.50;;
19193;SDS011;9729;52.296;13.260;2022-10-16T14:53:12;2.87;;;0.97;;
19193;SDS011;9729;52.296;13.260;2022-10-16T14:55:39;0.83;;;0.60;;
19193;SDS011;9729;52.296;13.260;2022-10-16T14:58:08;6.53;;;0.73;;
19193;SDS011;9729;52.296;13.260;2022-10-16T15:00:36;0.73;;;0.67;;
19193;SDS011;9729;52.296;13.260;2022-10-16T15:03:04;1.20;;;0.67;;
19193;SDS011;9729;52.296;13.260;2022-10-16T15:05:30;5.17;;;0.87;;
19193;SDS011;9729;52.296;13.260;2022-10-16T15:07:57;0.80;;;0.60;;